Time;durP1;ratioP1;P1;durP2;ratioP2;P2;SDS_P1;SDS_P2;PMS_P1;PMS_P2;Temp;Humidity;BMP_temperature;BMP_pressure;BME280_temperature;BME280_humidity;BME280_pressure;Samples;Min_cycle;Max_cycle;Signal;HPM_P1;HPM_P2
2023/03/07 00:01:22;;;;;;;;;5.25;3.75;;;;;21.50;32.15;99898.94;5070612;28;45411;-73
2023/03/07 00:03:47;;;;;;;;;4.00;4.00;;;;;21.49;32.11;99893.72;5073205;28;46553;-73
2023/03/07 00:06:13;;;;;;;;;4.25;4.00;;;;;21.48;32.39;99897.34;5073090;27;69712;-74
2023/03/07 00:08:38;;;;;;;;;7.75;4.00;;;;;21.46;31.96;99891.31;5068089;27;66831;-74
2023/03/07 00:11:08;;;;;;;;;7.25;4.25;;;;;21.49;32.44;99894.56;5095840;27;66468;-74
2023/03/07 00:13:35;;;;;;;;;3.25;3.25;;;;;21.45;32.19;99890.47;5079841;28;46305;-74
2023/03/07 00:16:02;;;;;;;;;4.00;4.00;;;;;21.42;32.62;99886.25;5075960;27;45355;-74
2023/03/07 00:18:28;;;;;;;;;4.00;3.75;;;;;21.47;32.09;99887.69;5067286;28;45382;-74
2023/03/07 00:20:58;;;;;;;;;4.25;4.25;;;;;21.44;32.11;99883.44;5076017;28;45353;-74
2023/03/07 00:23:23;;;;;;;;;4.25;4.00;;;;;21.46;32.48;99880.69;5070080;28;46450;-74
2023/03/07 00:25:57;;;;;;;;;5.00;4.00;;;;;21.44;32.25;99891.44;5072613;27;45199;-74
2023/03/07 00:28:22;;;;;;;;;5.00;5.00;;;;;21.41;32.28;99889.88;5075268;27;45393;-73
2023/03/07 00:30:47;;;;;;;;;5.00;4.00;;;;;21.43;32.41;99884.44;5070691;28;59715;-73
2023/03/07 00:33:13;;;;;;;;;8.25;4.00;;;;;21.43;32.00;99884.44;5070367;28;75231;-74
2023/03/07 00:35:38;;;;;;;;;4.00;3.25;;;;;21.41;32.49;99881.91;5061546;28;62294;-74
2023/03/07 00:38:03;;;;;;;;;5.75;4.25;;;;;21.38;32.21;99873.34;5071909;27;59878;-73
2023/03/07 00:40:29;;;;;;;;;8.50;4.00;;;;;21.33;32.02;99860.41;5073056;27;72710;-73
2023/03/07 00:42:54;;;;;;;;;6.25;4.75;;;;;21.42;32.01;99874.75;5069725;28;64617;-73
2023/03/07 00:45:19;;;;;;;;;5.25;5.00;;;;;21.36;32.42;99869.97;5058512;27;61470;-73
2023/03/07 00:47:45;;;;;;;;;4.00;4.00;;;;;21.39;32.10;99867.88;5059712;28;45444;-73
2023/03/07 00:50:11;;;;;;;;;6.50;4.75;;;;;21.37;32.17;99861.00;5070345;27;45408;-73
2023/03/07 00:52:36;;;;;;;;;5.00;5.00;;;;;21.34;31.92;99845.31;5079251;27;45500;-74
2023/03/07 00:55:01;;;;;;;;;5.75;4.00;;;;;21.36;32.31;99860.16;5062252;28;47583;-74
2023/03/07 00:57:27;;;;;;;;;5.75;5.25;;;;;21.36;32.07;99854.84;5052975;28;62074;-74
2023/03/07 00:59:52;;;;;;;;;6.50;5.00;;;;;21.34;31.82;99846.16;5066133;27;72377;-74
2023/03/07 01:02:17;;;;;;;;;6.25;5.00;;;;;21.35;31.77;99847.81;5074388;27;52935;-74
2023/03/07 01:04:42;;;;;;;;;9.50;6.00;;;;;21.36;31.92;99846.84;5073597;28;64639;-74
2023/03/07 01:07:08;;;;;;;;;6.00;4.25;;;;;21.35;32.12;99841.66;5053030;28;49009;-74
2023/03/07 01:09:33;;;;;;;;;4.25;4.25;;;;;21.33;31.92;99844.44;5085416;27;45357;-74
2023/03/07 01:11:58;;;;;;;;;4.00;3.25;;;;;21.35;31.79;99839.00;5065714;28;72982;-74
2023/03/07 01:14:24;;;;;;;;;6.00;5.00;;;;;21.30;32.24;99819.91;5074084;27;70383;-74
2023/03/07 01:16:49;;;;;;;;;6.75;5.00;;;;;21.30;32.16;99815.47;5070964;28;59881;-74
2023/03/07 01:19:14;;;;;;;;;6.25;5.00;;;;;21.31;32.03;99825.09;5064618;28;65488;-74
2023/03/07 01:21:41;;;;;;;;;4.00;4.00;;;;;21.29;32.25;99819.09;5062769;28;45475;-74
2023/03/07 01:24:11;;;;;;;;;5.75;4.75;;;;;21.29;32.00;99810.25;5064814;27;45395;-74
2023/03/07 01:26:36;;;;;;;;;6.25;4.00;;;;;21.28;31.65;99816.56;5072761;28;45411;-74
2023/03/07 01:29:04;;;;;;;;;7.00;5.75;;;;;21.31;32.23;99810.97;5063471;27;45572;-74
2023/03/07 01:31:31;;;;;;;;;9.00;5.00;;;;;21.27;31.93;99802.41;5048790;28;47572;-74
2023/03/07 01:33:57;;;;;;;;;5.25;4.75;;;;;21.27;31.72;99805.06;5046553;28;47136;-74
2023/03/07 01:36:29;;;;;;;;;7.00;5.00;;;;;21.30;31.70;99803.94;5049042;28;45390;-73
2023/03/07 01:38:57;;;;;;;;;5.25;4.75;;;;;21.29;32.15;99807.59;5061638;28;45394;-73
2023/03/07 01:41:23;;;;;;;;;3.25;2.50;;;;;21.29;31.60;99799.63;5056044;28;48154;-73
2023/03/07 01:43:48;;;;;;;;;6.75;3.75;;;;;21.25;32.11;99785.75;5071021;27;45303;-74
2023/03/07 01:46:25;;;;;;;;;6.00;3.75;;;;;21.25;32.06;99783.09;5067624;28;45367;-74
2023/03/07 01:48:53;;;;;;;;;4.75;4.75;;;;;21.26;32.20;99779.44;5068902;27;45593;-74
2023/03/07 01:51:19;;;;;;;;;3.75;3.25;;;;;21.26;31.91;99783.91;5065322;28;45532;-74
2023/03/07 01:53:46;;;;;;;;;7.50;5.00;;;;;21.26;31.95;99779.44;5062807;27;57299;-73
2023/03/07 01:56:11;;;;;;;;;4.75;4.00;;;;;21.24;32.08;99784.03;5063821;28;45342;-74
2023/03/07 01:58:38;;;;;;;;;6.75;5.50;;;;;21.24;32.07;99776.06;5065333;28;72226;-74
2023/03/07 02:01:05;;;;;;;;;5.75;3.75;;;;;21.26;32.02;99775.94;5070521;27;47335;-74
2023/03/07 02:03:42;;;;;;;;;5.00;4.25;;;;;21.25;31.63;99772.44;5068115;28;46736;-74
2023/03/07 02:06:09;;;;;;;;;4.50;4.00;;;;;21.25;32.03;99767.13;5064059;27;45500;-74
2023/03/07 02:08:36;;;;;;;;;6.00;4.00;;;;;21.24;31.64;99765.41;5073436;27;45547;-74
2023/03/07 02:11:01;;;;;;;;;5.00;3.50;;;;;21.24;31.60;99752.09;5057866;28;46621;-74
2023/03/07 02:13:26;;;;;;;;;5.00;4.75;;;;;21.24;31.85;99752.09;5071436;28;75425;-74
2023/03/07 02:15:52;;;;;;;;;5.25;5.25;;;;;21.16;32.02;99733.31;5070721;28;45337;-74
2023/03/07 02:18:20;;;;;;;;;7.00;5.00;;;;;21.23;31.45;99745.13;5068045;28;45410;-73
2023/03/07 02:21:03;;;;;;;;;6.00;6.00;;;;;21.21;31.92;99747.03;5060062;28;45377;-73
2023/03/07 02:23:47;;;;;;;;;5.25;5.00;;;;;21.21;31.42;99741.72;5058084;28;45642;-73
2023/03/07 02:26:24;;;;;;;;;4.50;4.00;;;;;21.20;31.46;99740.06;5067997;27;45449;-73
2023/03/07 02:28:49;;;;;;;;;7.25;6.00;;;;;21.17;31.79;99730.50;5064083;27;46026;-73
2023/03/07 02:31:15;;;;;;;;;4.75;4.25;;;;;21.20;31.56;99732.91;5070229;28;45445;-73
2023/03/07 02:33:40;;;;;;;;;7.50;4.75;;;;;21.15;31.71;99721.81;5063282;28;45448;-73
2023/03/07 02:36:10;;;;;;;;;5.75;5.00;;;;;21.19;31.54;99722.41;5064529;28;62618;-74
2023/03/07 02:38:38;;;;;;;;;6.00;6.00;;;;;21.16;31.68;99714.69;5048860;28;45414;-74
2023/03/07 02:41:05;;;;;;;;;6.50;4.75;;;;;21.18;31.55;99720.72;5073996;28;46859;-74
2023/03/07 02:43:30;;;;;;;;;8.75;6.75;;;;;21.06;31.89;99701.34;5058647;28;45773;-74
2023/03/07 02:45:55;;;;;;;;;5.25;4.75;;;;;21.12;31.83;99713.28;5070403;28;52246;-74
2023/03/07 02:48:21;;;;;;;;;4.50;4.50;;;;;21.16;31.65;99712.88;5054348;28;45442;-74
2023/03/07 02:50:47;;;;;;;;;9.00;5.00;;;;;21.16;31.75;99706.69;5076821;28;76095;-74
2023/03/07 02:53:12;;;;;;;;;7.25;4.50;;;;;21.15;31.57;99705.88;5080529;27;45698;-74
2023/03/07 02:55:38;;;;;;;;;8.50;6.00;;;;;21.15;31.55;99705.03;5073646;28;56902;-74
2023/03/07 02:58:03;;;;;;;;;5.25;4.75;;;;;21.14;31.76;99704.19;5047312;28;45793;-74
2023/03/07 03:00:28;;;;;;;;;7.00;6.00;;;;;21.10;31.72;99697.44;5074336;28;47882;-74
2023/03/07 03:02:54;;;;;;;;;4.75;4.75;;;;;21.12;31.93;99700.81;5074548;28;45296;-74
2023/03/07 03:05:19;;;;;;;;;5.00;4.00;;;;;21.13;32.00;99699.84;5070671;28;45502;-74
2023/03/07 03:07:45;;;;;;;;;5.50;4.25;;;;;21.07;31.56;99684.44;5070042;28;47125;-74
2023/03/07 03:10:10;;;;;;;;;5.00;5.00;;;;;21.16;32.10;99698.72;5071644;27;73568;-74
2023/03/07 03:12:36;;;;;;;;;4.75;4.25;;;;;21.15;31.59;99692.56;5068277;28;65850;-74
2023/03/07 03:15:01;;;;;;;;;5.75;4.00;;;;;21.21;31.77;99694.69;5073426;27;45741;-74
2023/03/07 03:17:27;;;;;;;;;5.00;4.25;;;;;21.23;31.72;99687.41;5074456;27;45511;-74
2023/03/07 03:19:52;;;;;;;;;5.00;4.00;;;;;21.22;32.03;99677.75;5073009;27;46053;-74
2023/03/07 03:22:17;;;;;;;;;7.00;3.75;;;;;21.27;31.67;99685.31;5073619;27;72501;-74
2023/03/07 03:24:44;;;;;;;;;4.50;3.75;;;;;21.27;31.80;99677.34;5072127;27;45515;-74
2023/03/07 03:27:10;;;;;;;;;3.75;3.25;;;;;21.29;31.85;99683.34;5077548;28;45306;-73
2023/03/07 03:29:35;;;;;;;;;6.50;4.25;;;;;21.31;31.58;99670.75;5069139;27;64327;-75
2023/03/07 03:32:01;;;;;;;;;5.00;5.00;;;;;21.31;32.04;99675.25;5072893;27;45354;-74
2023/03/07 03:34:26;;;;;;;;;5.25;5.25;;;;;21.35;31.94;99679.31;5070861;27;45576;-74
2023/03/07 03:36:52;;;;;;;;;4.00;4.00;;;;;21.34;31.86;99673.16;5074638;27;65429;-73
2023/03/07 03:39:17;;;;;;;;;4.75;4.75;;;;;21.34;31.87;99667.84;5073480;28;45334;-73
2023/03/07 03:41:43;;;;;;;;;8.00;5.25;;;;;21.36;31.86;99673.03;5072233;27;45276;-74
2023/03/07 03:44:08;;;;;;;;;5.00;4.50;;;;;21.34;32.03;99661.69;5066709;27;58137;-73
2023/03/07 03:46:35;;;;;;;;;6.50;5.00;;;;;21.35;31.82;99663.34;5069009;27;45274;-73
2023/03/07 03:49:00;;;;;;;;;4.00;4.00;;;;;21.37;31.42;99661.38;5072320;28;45480;-73
2023/03/07 03:51:25;;;;;;;;;0.75;0.75;;;;;21.35;31.89;99660.69;5071735;27;68987;-74
2023/03/07 03:53:51;;;;;;;;;3.75;3.50;;;;;21.35;31.78;99658.84;5067827;27;45360;-74
2023/03/07 03:56:21;;;;;;;;;5.75;4.00;;;;;21.38;31.54;99660.41;5068142;28;45597;-74
2023/03/07 03:58:51;;;;;;;;;4.25;4.25;;;;;21.38;31.42;99655.09;5054852;28;48158;-74
2023/03/07 04:01:18;;;;;;;;;5.00;5.00;;;;;21.37;31.38;99653.41;5071032;28;45374;-74
2023/03/07 04:03:45;;;;;;;;;5.00;5.00;;;;;21.34;31.87;99645.72;5077325;28;45484;-74
2023/03/07 04:06:13;;;;;;;;;4.00;3.50;;;;;21.36;31.88;99641.09;5070625;27;45141;-74
2023/03/07 04:08:38;;;;;;;;;4.50;3.75;;;;;21.30;31.57;99637.16;5069257;27;46375;-74
2023/03/07 04:11:04;;;;;;;;;4.25;3.25;;;;;21.34;31.94;99641.22;5072867;28;52987;-74
2023/03/07 04:13:34;;;;;;;;;5.00;4.25;;;;;21.35;31.53;99642.88;5074481;27;45493;-74
2023/03/07 04:15:59;;;;;;;;;5.50;5.25;;;;;21.26;31.66;99619.75;5073519;27;45287;-74
2023/03/07 04:18:25;;;;;;;;;4.25;4.00;;;;;21.31;31.94;99638.81;5069236;27;50674;-74
2023/03/07 04:20:51;;;;;;;;;5.00;4.00;;;;;21.34;31.38;99641.22;5073654;27;65121;-74
2023/03/07 04:23:21;;;;;;;;;5.75;4.00;;;;;21.35;31.33;99642.06;5076046;27;45199;-74
2023/03/07 04:25:54;;;;;;;;;4.75;4.75;;;;;21.32;31.41;99640.50;5067813;28;45597;-74
2023/03/07 04:28:20;;;;;;;;;6.50;4.50;;;;;21.33;31.24;99641.34;5064934;28;45477;-74
2023/03/07 04:30:46;;;;;;;;;5.25;4.00;;;;;21.33;31.88;99644.00;5064823;27;45505;-74
2023/03/07 04:33:11;;;;;;;;;7.25;5.25;;;;;21.33;31.31;99647.50;5067416;28;45452;-74
2023/03/07 04:35:38;;;;;;;;;4.00;4.00;;;;;21.29;31.54;99640.78;5074819;27;45366;-74
2023/03/07 04:38:03;;;;;;;;;4.50;3.00;;;;;21.30;31.16;99638.94;5077001;27;47208;-74
2023/03/07 04:40:28;;;;;;;;;6.75;5.00;;;;;21.30;31.34;99637.16;5072648;27;69017;-74
2023/03/07 04:42:54;;;;;;;;;9.25;5.00;;;;;21.28;31.19;99632.94;5069068;28;66397;-74
2023/03/07 04:45:19;;;;;;;;;6.00;5.75;;;;;21.25;31.36;99628.75;5070257;27;68648;-74
2023/03/07 04:47:44;;;;;;;;;7.25;4.50;;;;;21.28;31.73;99630.28;5064808;28;59442;-73
2023/03/07 04:50:10;;;;;;;;;4.50;4.50;;;;;21.23;31.74;99620.88;5056410;28;57977;-73
2023/03/07 04:52:35;;;;;;;;;3.75;3.75;;;;;21.27;31.34;99620.63;5065252;27;60402;-73
2023/03/07 04:55:02;;;;;;;;;5.00;5.00;;;;;21.23;31.64;99620.06;5069133;28;45378;-74
2023/03/07 04:57:27;;;;;;;;;3.50;3.50;;;;;21.23;31.38;99612.91;5063918;28;45454;-74
2023/03/07 04:59:52;;;;;;;;;3.25;2.50;;;;;21.24;31.29;99609.25;5067953;28;67922;-73
2023/03/07 05:02:18;;;;;;;;;5.00;4.00;;;;;21.26;31.68;99610.94;5069369;28;45513;-73
2023/03/07 05:04:43;;;;;;;;;5.50;4.50;;;;;21.24;31.45;99614.56;5069307;28;50579;-73
2023/03/07 05:07:09;;;;;;;;;5.00;4.75;;;;;21.23;31.37;99617.41;5079727;27;46064;-73
2023/03/07 05:09:34;;;;;;;;;5.50;4.75;;;;;21.24;31.50;99611.91;5066894;27;45396;-73
2023/03/07 05:11:59;;;;;;;;;5.00;4.00;;;;;21.23;31.62;99612.06;5080686;27;45502;-74
2023/03/07 05:14:25;;;;;;;;;5.00;4.25;;;;;21.19;31.62;99613.31;5057704;28;45854;-74
2023/03/07 05:16:50;;;;;;;;;6.00;4.00;;;;;21.21;31.24;99614.88;5072986;28;50598;-74
2023/03/07 05:19:16;;;;;;;;;3.50;3.50;;;;;21.19;31.64;99608.81;5072108;28;71005;-74
2023/03/07 05:21:43;;;;;;;;;4.50;4.50;;;;;21.18;31.16;99601.00;5066618;28;45370;-74
2023/03/07 05:24:08;;;;;;;;;5.00;4.50;;;;;21.20;31.67;99607.84;5078597;27;45265;-74
2023/03/07 05:26:34;;;;;;;;;5.25;3.75;;;;;21.18;31.77;99615.13;5066781;27;45456;-74
2023/03/07 05:28:59;;;;;;;;;4.00;3.75;;;;;21.19;31.54;99608.81;5069205;27;45274;-74
2023/03/07 05:31:25;;;;;;;;;6.00;5.75;;;;;21.17;31.56;99610.78;5072919;27;45288;-74
2023/03/07 05:33:50;;;;;;;;;4.00;4.00;;;;;21.15;31.16;99601.28;5073253;28;46290;-73
2023/03/07 05:36:16;;;;;;;;;4.50;4.00;;;;;21.15;31.38;99603.94;5070020;27;72629;-73
2023/03/07 05:38:41;;;;;;;;;4.75;4.75;;;;;21.17;31.46;99599.31;5062262;27;45320;-74
2023/03/07 05:41:06;;;;;;;;;5.50;4.50;;;;;21.13;31.00;99596.09;5071729;27;45477;-74
2023/03/07 05:43:32;;;;;;;;;6.00;4.50;;;;;21.16;31.47;99586.97;5074638;28;64244;-73
2023/03/07 05:45:57;;;;;;;;;8.50;6.00;;;;;21.15;31.17;99595.94;5065379;28;45331;-73
2023/03/07 05:48:23;;;;;;;;;5.00;4.75;;;;;21.10;31.17;99582.22;5074549;27;66009;-73
2023/03/07 05:50:48;;;;;;;;;5.00;5.00;;;;;21.10;31.56;99577.72;5063630;28;45577;-73
2023/03/07 05:53:13;;;;;;;;;5.00;4.25;;;;;21.09;31.37;99581.38;5072142;27;46629;-73
2023/03/07 05:55:39;;;;;;;;;5.50;3.75;;;;;21.11;31.14;99579.41;5072007;28;48087;-72
2023/03/07 05:58:04;;;;;;;;;6.00;4.50;;;;;21.13;31.57;99589.94;5067851;27;45519;-73
2023/03/07 06:00:29;;;;;;;;;3.75;3.75;;;;;21.12;31.60;99582.91;5069331;28;45504;-73
2023/03/07 06:02:55;;;;;;;;;4.00;4.00;;;;;21.12;31.54;99585.56;5072572;27;53806;-73
2023/03/07 06:05:20;;;;;;;;;4.00;2.75;;;;;21.07;31.08;99570.03;5074334;27;46514;-73
2023/03/07 06:07:45;;;;;;;;;5.75;4.00;;;;;21.06;31.52;99576.34;5066468;27;70033;-73
2023/03/07 06:10:11;;;;;;;;;4.00;4.00;;;;;21.07;31.64;99578.03;5068941;27;66457;-73
2023/03/07 06:12:36;;;;;;;;;3.00;3.00;;;;;21.05;31.63;99575.50;5060450;28;45440;-73
2023/03/07 06:15:02;;;;;;;;;4.25;3.50;;;;;21.09;31.42;99580.53;5064183;28;74394;-73
2023/03/07 06:17:31;;;;;;;;;4.75;4.00;;;;;21.08;31.57;99574.38;5063368;28;45396;-73
2023/03/07 06:19:56;;;;;;;;;5.25;4.50;;;;;21.10;31.84;99571.56;5063047;28;69413;-73
2023/03/07 06:22:21;;;;;;;;;6.00;2.25;;;;;21.08;31.19;99574.38;5068118;28;52916;-73
2023/03/07 06:24:46;;;;;;;;;2.00;2.00;;;;;21.14;31.56;99575.63;5060179;27;45623;-74
2023/03/07 06:27:13;;;;;;;;;6.00;3.75;;;;;21.15;31.62;99580.00;5065739;28;75262;-74
2023/03/07 06:29:38;;;;;;;;;5.00;5.00;;;;;21.19;31.63;99581.38;5060352;27;67393;-74
2023/03/07 06:32:04;;;;;;;;;3.00;3.00;;;;;21.21;31.77;99582.06;5069550;28;65292;-74
2023/03/07 06:34:29;;;;;;;;;3.25;3.25;;;;;21.21;31.65;99580.28;5065093;27;46097;-74
2023/03/07 06:36:55;;;;;;;;;4.75;4.00;;;;;21.22;31.28;99573.13;5045908;28;70483;-75
2023/03/07 06:39:20;;;;;;;;;6.00;4.00;;;;;21.24;31.91;99577.31;5068631;28;65367;-75
2023/03/07 06:41:47;;;;;;;;;5.50;4.75;;;;;21.25;31.71;99575.53;5057636;28;45441;-75
2023/03/07 06:44:13;;;;;;;;;5.00;5.00;;;;;21.27;31.66;99581.53;5069112;28;45387;-75
2023/03/07 06:46:38;;;;;;;;;9.75;6.75;;;;;21.26;31.60;99563.88;5072158;27;45511;-75
2023/03/07 06:49:03;;;;;;;;;10.50;6.00;;;;;21.28;31.17;99574.38;5060886;28;69033;-74
2023/03/07 06:51:32;;;;;;;;;5.25;5.25;;;;;21.28;31.36;99569.06;5070552;27;70961;-73
2023/03/07 06:53:57;;;;;;;;;6.50;6.00;;;;;21.30;31.57;99572.44;5073181;27;45657;-74
2023/03/07 06:56:23;;;;;;;;;5.25;5.00;;;;;21.30;31.09;99570.63;5049593;28;45397;-74
2023/03/07 06:58:48;;;;;;;;;3.75;3.00;;;;;21.32;31.78;99576.66;5066649;28;45477;-74
2023/03/07 07:01:17;;;;;;;;;5.25;5.00;;;;;21.30;31.46;99575.94;5072267;27;66459;-73
2023/03/07 07:03:43;;;;;;;;;7.75;4.25;;;;;21.31;31.62;99566.13;5070549;28;45470;-73
2023/03/07 07:06:08;;;;;;;;;5.00;4.00;;;;;21.31;31.29;99572.28;5064516;27;45439;-74
2023/03/07 07:08:34;;;;;;;;;4.75;4.50;;;;;21.33;31.52;99574.81;5068196;28;59454;-74
2023/03/07 07:10:59;;;;;;;;;7.75;4.00;;;;;21.32;31.42;99573.13;5071449;28;45580;-74
2023/03/07 07:13:24;;;;;;;;;5.00;5.00;;;;;21.30;31.51;99580.41;5065880;28;68945;-73
2023/03/07 07:15:50;;;;;;;;;5.75;4.00;;;;;21.32;31.63;99581.97;5067618;27;57252;-74
2023/03/07 07:18:15;;;;;;;;;4.00;3.50;;;;;21.35;31.16;99581.66;5052334;28;69075;-74
2023/03/07 07:20:40;;;;;;;;;6.25;4.00;;;;;21.36;31.36;99591.34;5071730;27;69616;-74
2023/03/07 07:23:06;;;;;;;;;4.50;4.50;;;;;21.37;31.60;99593.03;5053882;28;46975;-74
2023/03/07 07:25:31;;;;;;;;;5.00;4.00;;;;;21.40;31.69;99595.41;5071598;28;58118;-74
2023/03/07 07:27:56;;;;;;;;;4.50;4.00;;;;;21.43;31.12;99588.97;5069651;28;53994;-74
2023/03/07 07:30:22;;;;;;;;;5.50;4.00;;;;;21.43;31.62;99584.50;5071653;27;45528;-73
2023/03/07 07:32:47;;;;;;;;;2.50;2.50;;;;;21.44;31.72;99587.97;5076574;27;46021;-73
2023/03/07 07:35:12;;;;;;;;;4.25;2.75;;;;;21.42;31.20;99580.16;5071606;27;46399;-73
2023/03/07 07:37:39;;;;;;;;;3.75;3.00;;;;;21.47;31.15;99586.91;5068270;27;45262;-73
2023/03/07 07:40:05;;;;;;;;;2.25;2.25;;;;;21.49;31.25;99583.13;5065186;28;45484;-73
2023/03/07 07:42:30;;;;;;;;;7.00;4.75;;;;;21.49;31.38;99583.13;5069805;27;45485;-73
2023/03/07 07:44:56;;;;;;;;;4.25;3.00;;;;;21.50;31.26;99583.97;5076177;27;72004;-74
2023/03/07 07:47:22;;;;;;;;;6.00;6.00;;;;;21.51;31.20;99583.81;5074307;27;51698;-75
2023/03/07 07:49:47;;;;;;;;;8.00;7.00;;;;;21.57;31.13;99580.59;5061370;28;45624;-73
2023/03/07 07:52:13;;;;;;;;;9.25;7.50;;;;;21.56;30.96;99580.75;5076988;27;48638;-76
2023/03/07 07:54:38;;;;;;;;;7.00;6.00;;;;;21.59;30.64;99586.63;5085530;27;66814;-73
2023/03/07 07:57:03;;;;;;;;;6.50;6.50;;;;;21.58;29.96;99582.28;5057975;28;45248;-71
2023/03/07 07:59:30;;;;;;;;;9.75;6.50;;;;;21.60;30.27;99590.97;5055126;28;45430;-71
2023/03/07 08:01:56;;;;;;;;;10.25;7.00;;;;;21.60;29.64;99593.63;5075441;27;45219;-71
2023/03/07 08:04:21;;;;;;;;;8.50;8.00;;;;;21.60;29.85;99603.44;5075695;28;70119;-71
2023/03/07 08:06:46;;;;;;;;;7.00;7.00;;;;;21.60;29.87;99598.97;5062900;27;45376;-71
2023/03/07 08:09:13;;;;;;;;;8.75;7.75;;;;;21.63;29.53;99604.97;5070511;28;45414;-71
2023/03/07 08:11:38;;;;;;;;;9.00;8.00;;;;;21.61;29.36;99597.13;5080346;27;45398;-71
2023/03/07 08:14:04;;;;;;;;;11.75;10.25;;;;;21.63;29.22;99594.34;5052247;28;45426;-72
2023/03/07 08:16:29;;;;;;;;;10.00;8.25;;;;;21.63;28.95;99600.50;5073568;28;46505;-72
2023/03/07 08:18:56;;;;;;;;;7.50;7.50;;;;;21.64;29.14;99609.31;5063821;27;55094;-71
2023/03/07 08:21:22;;;;;;;;;11.00;8.50;;;;;21.60;28.69;99598.97;5061276;28;48380;-73
2023/03/07 08:23:48;;;;;;;;;11.00;8.75;;;;;21.59;28.63;99591.13;5055835;28;45366;-72
2023/03/07 08:26:13;;;;;;;;;8.75;7.25;;;;;21.59;28.44;99597.28;5066479;27;45334;-72
2023/03/07 08:28:40;;;;;;;;;9.00;6.50;;;;;21.61;29.34;99600.63;5059699;28;45284;-73
2023/03/07 08:31:17;;;;;;;;;7.75;6.00;;;;;21.64;28.97;99604.84;5060225;28;46133;-72
2023/03/07 08:33:43;;;;;;;;;6.25;5.00;;;;;21.64;29.44;99596.84;5052071;28;45742;-73
2023/03/07 08:36:08;;;;;;;;;6.00;5.00;;;;;21.67;29.66;99601.88;5074517;27;45741;-73
2023/03/07 08:38:34;;;;;;;;;6.00;6.00;;;;;21.68;29.44;99597.41;5049127;28;45494;-72
2023/03/07 08:41:00;;;;;;;;;5.50;4.00;;;;;21.73;29.77;99596.00;5064088;27;45264;-72
2023/03/07 08:43:27;;;;;;;;;6.25;5.00;;;;;21.71;29.64;99595.31;5070004;28;46495;-73
2023/03/07 08:45:54;;;;;;;;;5.25;3.75;;;;;21.77;29.91;99596.56;5073071;27;45550;-73
2023/03/07 08:48:19;;;;;;;;;3.50;3.50;;;;;21.75;29.94;99578.06;5076887;27;45621;-73
2023/03/07 08:50:45;;;;;;;;;5.00;2.00;;;;;21.79;29.56;99584.78;5063234;28;73613;-73
2023/03/07 08:53:12;;;;;;;;;3.25;3.25;;;;;21.80;29.71;99588.31;5073896;28;45210;-73
2023/03/07 08:55:38;;;;;;;;;5.00;3.50;;;;;21.85;29.78;99585.19;5048785;28;45584;-69
2023/03/07 08:58:03;;;;;;;;;5.25;4.00;;;;;21.87;30.06;99592.06;5079424;28;46106;-70
2023/03/07 09:00:28;;;;;;;;;4.00;4.00;;;;;21.93;30.19;99588.81;5074304;27;67989;-74
2023/03/07 09:02:57;;;;;;;;;4.00;3.00;;;;;21.94;30.22;99582.53;5078384;28;63611;-73
2023/03/07 09:05:22;;;;;;;;;3.50;3.00;;;;;21.99;30.04;99585.59;5075152;27;45387;-76
2023/03/07 09:07:47;;;;;;;;;7.50;3.25;;;;;22.02;30.25;99586.28;5064806;27;45502;-75
2023/03/07 09:10:13;;;;;;;;;0.00;0.00;;;;;22.04;30.07;99589.66;5058572;27;66082;-74
2023/03/07 09:12:38;;;;;;;;;4.25;2.50;;;;;22.09;30.36;99582.91;5070190;28;45278;-74
2023/03/07 09:15:04;;;;;;;;;2.75;2.75;;;;;22.12;30.40;99590.63;5047474;27;70835;-74
2023/03/07 09:17:29;;;;;;;;;4.50;2.50;;;;;22.14;30.34;99588.66;5067469;27;45210;-74
2023/03/07 09:19:55;;;;;;;;;5.25;5.00;;;;;22.13;30.34;99581.66;5075286;28;69207;-71
2023/03/07 09:22:20;;;;;;;;;5.00;3.00;;;;;22.18;30.39;99578.53;5078437;28;45525;-73
2023/03/07 09:24:46;;;;;;;;;3.50;2.75;;;;;22.18;30.24;99582.03;5076302;27;59472;-72
2023/03/07 09:27:11;;;;;;;;;2.75;2.50;;;;;22.17;30.17;99576.88;5077450;27;57013;-73
2023/03/07 09:29:36;;;;;;;;;4.75;3.00;;;;;22.21;30.22;99577.44;5075790;27;45414;-72
2023/03/07 09:32:02;;;;;;;;;6.50;3.00;;;;;22.23;29.98;99584.28;5076985;27;55573;-72
2023/03/07 09:34:28;;;;;;;;;3.00;3.00;;;;;22.23;29.94;99578.13;5066019;28;45419;-72
2023/03/07 09:36:53;;;;;;;;;5.00;3.75;;;;;22.25;29.99;99573.47;5065173;28;73166;-73
2023/03/07 09:39:18;;;;;;;;;5.00;3.00;;;;;22.26;30.07;99577.84;5067888;28;63966;-71
2023/03/07 09:42:13;;;;;;;;;4.50;2.50;;;;;22.28;30.45;99567.91;5051002;28;51491;-72
2023/03/07 09:45:08;;;;;;;;;3.00;3.00;;;;;22.31;30.05;99573.78;5073368;28;46152;-72
2023/03/07 09:47:42;;;;;;;;;2.00;2.00;;;;;22.32;30.28;99569.28;5070468;28;45384;-72
2023/03/07 09:50:39;;;;;;;;;4.50;3.75;;;;;22.31;30.08;99562.25;5063781;28;45475;-71
2023/03/07 09:53:05;;;;;;;;;5.75;3.00;;;;;22.35;30.24;99561.81;5079322;28;45526;-71
2023/03/07 09:55:31;;;;;;;;;3.25;3.00;;;;;22.37;30.18;99557.19;5055392;28;45368;-71
2023/03/07 09:58:05;;;;;;;;;2.00;2.00;;;;;22.41;30.24;99559.56;5074929;28;45436;-71
2023/03/07 10:00:41;;;;;;;;;3.25;2.75;;;;;22.39;30.37;99559.69;5066709;27;46664;-71
2023/03/07 10:03:38;;;;;;;;;3.50;2.00;;;;;22.44;30.57;99553.94;5077178;27;45367;-71
2023/03/07 10:06:13;;;;;;;;;2.75;2.00;;;;;22.45;30.05;99552.94;5072329;28;45461;-71
2023/03/07 10:08:38;;;;;;;;;2.75;2.75;;;;;22.45;30.11;99542.28;5066809;28;45579;-71
2023/03/07 10:11:04;;;;;;;;;3.00;3.00;;;;;22.49;30.16;99546.34;5077858;28;46397;-72
2023/03/07 10:13:32;;;;;;;;;2.00;1.25;;;;;22.50;30.16;99545.34;5072524;27;45303;-71
2023/03/07 10:16:04;;;;;;;;;4.75;3.00;;;;;22.50;30.65;99540.84;5075743;28;47145;-72
2023/03/07 10:18:41;;;;;;;;;3.50;3.00;;;;;22.53;30.23;99545.06;5068191;27;45350;-71
2023/03/07 10:21:25;;;;;;;;;2.00;2.00;;;;;22.53;30.38;99534.38;5078842;28;45432;-72
2023/03/07 10:23:59;;;;;;;;;4.00;1.50;;;;;22.54;30.53;99539.56;5075320;27;45193;-72
2023/03/07 10:26:40;;;;;;;;;3.25;2.00;;;;;22.56;30.15;99532.25;5081617;27;45230;-72
2023/03/07 10:29:21;;;;;;;;;3.00;3.00;;;;;22.54;30.48;99522.72;5058218;28;45692;-72
2023/03/07 10:31:49;;;;;;;;;3.00;2.75;;;;;22.58;30.31;99524.13;5077714;27;47150;-75
2023/03/07 10:34:29;;;;;;;;;2.50;2.00;;;;;22.58;30.68;99524.13;5061940;28;45766;-73
2023/03/07 10:37:06;;;;;;;;;6.25;5.00;;;;;22.58;30.69;99520.63;5064046;28;45497;-72
2023/03/07 10:39:51;;;;;;;;;7.00;5.50;;;;;22.59;30.12;99520.44;5070261;28;45418;-72
2023/03/07 10:42:22;;;;;;;;;10.00;7.00;;;;;22.58;30.30;99521.47;5079182;28;45458;-73
2023/03/07 10:44:48;;;;;;;;;9.75;7.00;;;;;22.54;29.88;99520.91;5075828;27;45916;-74
2023/03/07 10:47:19;;;;;;;;;7.00;6.75;;;;;22.47;30.22;99509.16;5079712;28;45515;-73
2023/03/07 10:49:45;;;;;;;;;7.50;6.00;;;;;22.49;29.84;99517.03;5060354;27;45469;-71
2023/03/07 10:52:40;;;;;;;;;7.50;7.00;;;;;22.45;30.17;99512.94;5064123;28;48463;-74
2023/03/07 10:55:30;;;;;;;;;5.25;4.00;;;;;22.42;29.67;99510.59;5044907;28;45355;-74
2023/03/07 10:58:18;;;;;;;;;7.00;4.25;;;;;22.39;29.92;99506.38;5076969;27;45323;-74
2023/03/07 11:00:45;;;;;;;;;4.25;4.25;;;;;22.39;29.84;99498.41;5064102;28;45568;-73
2023/03/07 11:03:43;;;;;;;;;6.75;4.00;;;;;22.41;30.38;99509.75;5076328;27;46075;-74
2023/03/07 11:06:30;;;;;;;;;6.00;4.00;;;;;22.41;30.49;99501.75;5073781;27;45791;-74
2023/03/07 11:08:56;;;;;;;;;2.25;2.00;;;;;22.39;30.54;99497.56;5063822;28;45262;-73
2023/03/07 11:11:29;;;;;;;;;4.00;2.75;;;;;22.44;30.49;99500.63;5079219;27;45572;-74
2023/03/07 11:14:05;;;;;;;;;5.00;3.50;;;;;22.44;30.28;99497.97;5082711;27;45257;-75
2023/03/07 11:16:30;;;;;;;;;3.00;3.00;;;;;22.45;30.35;99500.47;5077800;28;45748;-73
2023/03/07 11:18:56;;;;;;;;;3.75;2.50;;;;;22.47;30.37;99500.31;5063552;28;60564;-75
2023/03/07 11:21:32;;;;;;;;;4.25;3.00;;;;;22.50;30.80;99510.69;5063968;28;45735;-74
2023/03/07 11:24:36;;;;;;;;;3.00;3.00;;;;;22.51;30.63;99509.72;5069689;28;46208;-74
2023/03/07 11:27:01;;;;;;;;;4.75;2.00;;;;;22.53;30.71;99511.22;5069881;28;45403;-72
2023/03/07 11:29:32;;;;;;;;;4.00;2.00;;;;;22.52;30.48;99517.56;5064843;28;45264;-74
2023/03/07 11:32:17;;;;;;;;;5.00;3.00;;;;;22.57;30.96;99514.44;5071433;27;45461;-74
2023/03/07 11:34:43;;;;;;;;;2.00;2.00;;;;;22.58;30.83;99520.63;5070702;27;45438;-73
2023/03/07 11:37:17;;;;;;;;;3.00;3.00;;;;;22.60;30.90;99514.16;5077170;27;45493;-73